sensor_id;sensor_type;location;lat;lon;timestamp;pressure;altitude;pressure_sealevel;temperature;humidity
5651;BME280;40241;52.684;9.758;2023-03-31T00:01:33;100171.38;;;14.20;63.05
5651;BME280;40241;52.684;9.758;2023-03-31T00:03:59;100174.63;;;14.24;63.05
5651;BME280;40241;52.684;9.758;2023-03-31T00:06:35;100165.78;;;14.25;63.30
5651;BME280;40241;52.684;9.758;2023-03-31T00:09:06;100161.50;;;14.24;63.05
5651;BME280;40241;52.684;9.758;2023-03-31T00:11:32;100164.81;;;14.23;63.07
5651;BME280;40241;52.684;9.758;2023-03-31T00:13:57;100165.03;;;14.25;63.10
5651;BME280;40241;52.684;9.758;2023-03-31T00:16:23;100160.25;;;14.25;63.20
5651;BME280;40241;52.684;9.758;2023-03-31T00:18:48;100155.47;;;14.26;63.10
5651;BME280;40241;52.684;9.758;2023-03-31T00:21:22;100156.94;;;14.27;63.28
5651;BME280;40241;52.684;9.758;2023-03-31T00:23:56;100160.25;;;14.25;63.24
5651;BME280;40241;52.684;9.758;2023-03-31T00:26:22;100154.72;;;14.25;62.98
5651;BME280;40241;52.684;9.758;2023-03-31T00:28:48;100143.34;;;14.29;63.12
5651;BME280;40241;52.684;9.758;2023-03-31T00:31:14;100144.31;;;14.32;63.05
5651;BME280;40241;52.684;9.758;2023-03-31T00:33:39;100139.75;;;14.34;63.04
5651;BME280;40241;52.684;9.758;2023-03-31T00:36:05;100137.19;;;14.36;63.10
5651;BME280;40241;52.684;9.758;2023-03-31T00:38:31;100130.16;;;14.35;63.05
5651;BME280;40241;52.684;9.758;2023-03-31T00:40:58;100122.09;;;14.37;63.05
5651;BME280;40241;52.684;9.758;2023-03-31T00:43:33;100128.88;;;14.36;63.03
5651;BME280;40241;52.684;9.758;2023-03-31T00:48:32;100131.50;;;14.28;63.03
5651;BME280;40241;52.684;9.758;2023-03-31T00:50:59;100115.97;;;14.25;63.11
5651;BME280;40241;52.684;9.758;2023-03-31T00:53:30;100114.03;;;14.20;63.16
5651;BME280;40241;52.684;9.758;2023-03-31T00:56:01;100120.13;;;14.19;63.26
5651;BME280;40241;52.684;9.758;2023-03-31T00:58:29;100106.81;;;14.17;63.08
5651;BME280;40241;52.684;9.758;2023-03-31T01:01:01;100110.09;;;14.16;63.31
5651;BME280;40241;52.684;9.758;2023-03-31T01:03:29;100101.81;;;14.16;63.38
5651;BME280;40241;52.684;9.758;2023-03-31T01:06:01;100096.28;;;14.16;63.22
5651;BME280;40241;52.684;9.758;2023-03-31T01:08:31;100100.53;;;14.17;63.24
5651;BME280;40241;52.684;9.758;2023-03-31T01:11:03;100098.06;;;14.13;63.09
5651;BME280;40241;52.684;9.758;2023-03-31T01:13:31;100095.41;;;14.08;63.22
5651;BME280;40241;52.684;9.758;2023-03-31T01:15:58;100084.34;;;14.08;63.20
5651;BME280;40241;52.684;9.758;2023-03-31T01:18:24;100079.88;;;14.05;63.37
5651;BME280;40241;52.684;9.758;2023-03-31T01:42:37;100053.19;;;14.20;63.04
5651;BME280;40241;52.684;9.758;2023-03-31T01:48:01;100031.38;;;14.17;63.25
5651;BME280;40241;52.684;9.758;2023-03-31T01:55:47;100030.63;;;14.16;63.13
5651;BME280;40241;52.684;9.758;2023-03-31T01:58:19;100021.06;;;14.17;62.85
5651;BME280;40241;52.684;9.758;2023-03-31T02:00:58;100021.28;;;14.19;63.04
5651;BME280;40241;52.684;9.758;2023-03-31T02:03:30;100015.53;;;14.17;62.94
5651;BME280;40241;52.684;9.758;2023-03-31T02:06:02;100012.53;;;14.15;63.15
5651;BME280;40241;52.684;9.758;2023-03-31T02:08:36;100004.97;;;14.16;63.00
5651;BME280;40241;52.684;9.758;2023-03-31T02:11:03;100001.47;;;14.15;62.92
5651;BME280;40241;52.684;9.758;2023-03-31T02:13:29;99997.22;;;14.14;62.85
5651;BME280;40241;52.684;9.758;2023-03-31T02:15:59;99992.94;;;14.13;63.00
5651;BME280;40241;52.684;9.758;2023-03-31T02:18:30;99990.53;;;14.10;62.86
5651;BME280;40241;52.684;9.758;2023-03-31T02:20:58;99985.53;;;14.08;63.04
5651;BME280;40241;52.684;9.758;2023-03-31T02:23:27;99984.56;;;14.06;63.00
5651;BME280;40241;52.684;9.758;2023-03-31T02:26:01;99981.38;;;14.02;63.08
5651;BME280;40241;52.684;9.758;2023-03-31T02:28:28;99971.38;;;13.99;63.03
5651;BME280;40241;52.684;9.758;2023-03-31T02:33:29;99980.50;;;13.94;62.96
5651;BME280;40241;52.684;9.758;2023-03-31T02:35:55;99978.63;;;13.89;63.05
5651;BME280;40241;52.684;9.758;2023-03-31T02:38:20;99960.53;;;13.88;63.13
5651;BME280;40241;52.684;9.758;2023-03-31T02:40:46;99973.81;;;13.89;63.12
5651;BME280;40241;52.684;9.758;2023-03-31T02:43:11;99967.75;;;13.91;63.25
5651;BME280;40241;52.684;9.758;2023-03-31T02:45:41;99969.44;;;13.94;62.88
5651;BME280;40241;52.684;9.758;2023-03-31T02:48:10;99973.28;;;13.91;62.95
5651;BME280;40241;52.684;9.758;2023-03-31T02:50:50;99959.47;;;13.91;62.92
5651;BME280;40241;52.684;9.758;2023-03-31T02:59:25;99942.22;;;13.98;62.79
5651;BME280;40241;52.684;9.758;2023-03-31T03:13:15;99927.75;;;13.92;62.83
5651;BME280;40241;52.684;9.758;2023-03-31T03:15:46;99924.47;;;13.93;62.68
5651;BME280;40241;52.684;9.758;2023-03-31T03:18:12;99930.94;;;13.96;62.70
5651;BME280;40241;52.684;9.758;2023-03-31T03:20:41;99931.69;;;13.96;62.52
5651;BME280;40241;52.684;9.758;2023-03-31T03:23:07;99926.72;;;13.95;62.39
5651;BME280;40241;52.684;9.758;2023-03-31T03:25:32;99917.66;;;13.94;62.56
5651;BME280;40241;52.684;9.758;2023-03-31T03:27:58;99921.19;;;13.95;62.65
5651;BME280;40241;52.684;9.758;2023-03-31T03:30:23;99908.81;;;13.96;62.82
5651;BME280;40241;52.684;9.758;2023-03-31T03:32:49;99913.09;;;13.97;62.71
5651;BME280;40241;52.684;9.758;2023-03-31T03:35:15;99911.28;;;13.99;62.66
5651;BME280;40241;52.684;9.758;2023-03-31T03:37:40;99908.19;;;14.03;62.51
5651;BME280;40241;52.684;9.758;2023-03-31T03:40:06;99902.44;;;14.01;62.49
5651;BME280;40241;52.684;9.758;2023-03-31T03:42:33;99898.41;;;14.02;62.62
5651;BME280;40241;52.684;9.758;2023-03-31T03:44:58;99888.50;;;14.06;62.57
5651;BME280;40241;52.684;9.758;2023-03-31T03:47:23;99882.22;;;14.06;62.80
5651;BME280;40241;52.684;9.758;2023-03-31T03:49:49;99882.44;;;14.08;62.51
5651;BME280;40241;52.684;9.758;2023-03-31T03:52:15;99873.19;;;14.05;62.46
5651;BME280;40241;52.684;9.758;2023-03-31T03:54:40;99862.13;;;14.05;62.49
5651;BME280;40241;52.684;9.758;2023-03-31T03:57:06;99862.31;;;14.07;62.44
5651;BME280;40241;52.684;9.758;2023-03-31T03:59:31;99859.34;;;14.05;62.40
5651;BME280;40241;52.684;9.758;2023-03-31T04:01:57;99850.84;;;14.03;62.42
5651;BME280;40241;52.684;9.758;2023-03-31T04:04:22;99850.09;;;14.03;62.36
5651;BME280;40241;52.684;9.758;2023-03-31T04:06:48;99839.78;;;14.03;62.36
5651;BME280;40241;52.684;9.758;2023-03-31T04:09:13;99833.66;;;13.97;62.26
5651;BME280;40241;52.684;9.758;2023-03-31T04:11:38;99837.47;;;13.94;62.30
5651;BME280;40241;52.684;9.758;2023-03-31T04:14:04;99828.22;;;13.92;62.37
5651;BME280;40241;52.684;9.758;2023-03-31T04:16:29;99816.94;;;13.90;62.38
5651;BME280;40241;52.684;9.758;2023-03-31T04:18:54;99821.31;;;13.85;62.27
5651;BME280;40241;52.684;9.758;2023-03-31T04:21:24;99811.34;;;13.82;62.17
5651;BME280;40241;52.684;9.758;2023-03-31T04:23:52;99810.19;;;13.78;62.22
5651;BME280;40241;52.684;9.758;2023-03-31T04:26:30;99802.94;;;13.75;62.29
5651;BME280;40241;52.684;9.758;2023-03-31T04:29:07;99812.84;;;13.70;62.20
5651;BME280;40241;52.684;9.758;2023-03-31T04:31:34;99793.28;;;13.68;62.26
5651;BME280;40241;52.684;9.758;2023-03-31T04:34:03;99790.66;;;13.63;62.29
5651;BME280;40241;52.684;9.758;2023-03-31T04:36:31;99784.56;;;13.64;62.39
5651;BME280;40241;52.684;9.758;2023-03-31T04:38:57;99783.28;;;13.65;62.39
5651;BME280;40241;52.684;9.758;2023-03-31T04:41:24;99774.69;;;13.69;62.28
5651;BME280;40241;52.684;9.758;2023-03-31T04:43:52;99769.16;;;13.69;62.26
5651;BME280;40241;52.684;9.758;2023-03-31T04:46:18;99758.84;;;13.69;62.35
5651;BME280;40241;52.684;9.758;2023-03-31T04:48:43;99759.56;;;13.70;62.18
5651;BME280;40241;52.684;9.758;2023-03-31T04:51:09;99749.25;;;13.70;62.33
5651;BME280;40241;52.684;9.758;2023-03-31T04:53:34;99749.59;;;13.67;62.35
5651;BME280;40241;52.684;9.758;2023-03-31T04:56:00;99744.06;;;13.67;62.38
5651;BME280;40241;52.684;9.758;2023-03-31T04:58:25;99738.22;;;13.70;62.39
5651;BME280;40241;52.684;9.758;2023-03-31T05:00:51;99733.97;;;13.69;62.35
5651;BME280;40241;52.684;9.758;2023-03-31T05:03:17;99728.44;;;13.69;62.42
5651;BME280;40241;52.684;9.758;2023-03-31T05:05:42;99724.38;;;13.70;62.31
5651;BME280;40241;52.684;9.758;2023-03-31T05:08:07;99718.84;;;13.70;62.25
5651;BME280;40241;52.684;9.758;2023-03-31T05:10:33;99715.03;;;13.73;62.31
5651;BME280;40241;52.684;9.758;2023-03-31T05:12:58;99713.75;;;13.74;62.20
5651;BME280;40241;52.684;9.758;2023-03-31T05:15:23;99705.66;;;13.76;62.37
5651;BME280;40241;52.684;9.758;2023-03-31T05:17:49;99707.16;;;13.77;62.23
5651;BME280;40241;52.684;9.758;2023-03-31T05:20:16;99699.59;;;13.78;62.31
5651;BME280;40241;52.684;9.758;2023-03-31T05:22:42;99698.84;;;13.77;62.04
5651;BME280;40241;52.684;9.758;2023-03-31T05:25:08;99683.34;;;13.74;62.36
5651;BME280;40241;52.684;9.758;2023-03-31T05:27:34;99685.38;;;13.74;62.36
5651;BME280;40241;52.684;9.758;2023-03-31T05:30:01;99683.34;;;13.74;62.45
5651;BME280;40241;52.684;9.758;2023-03-31T05:32:26;99683.34;;;13.74;62.32
5651;BME280;40241;52.684;9.758;2023-03-31T05:34:52;99678.00;;;13.76;62.66
5651;BME280;40241;52.684;9.758;2023-03-31T05:37:24;99669.19;;;13.78;62.54
5651;BME280;40241;52.684;9.758;2023-03-31T05:39:50;99670.66;;;13.79;62.40
5651;BME280;40241;52.684;9.758;2023-03-31T05:42:16;99672.16;;;13.80;62.47
5651;BME280;40241;52.684;9.758;2023-03-31T05:44:41;99669.59;;;13.82;62.60
5651;BME280;40241;52.684;9.758;2023-03-31T05:47:06;99669.06;;;13.83;62.38
5651;BME280;40241;52.684;9.758;2023-03-31T05:49:32;99668.50;;;13.85;62.38
5651;BME280;40241;52.684;9.758;2023-03-31T05:51:57;99671.50;;;13.87;62.42
5651;BME280;40241;52.684;9.758;2023-03-31T05:54:22;99672.78;;;13.86;62.48
5651;BME280;40241;52.684;9.758;2023-03-31T05:56:48;99678.31;;;13.86;62.48
5651;BME280;40241;52.684;9.758;2023-03-31T05:59:13;99688.81;;;13.87;62.52
5651;BME280;40241;52.684;9.758;2023-03-31T06:01:39;99675.72;;;13.88;62.63
5651;BME280;40241;52.684;9.758;2023-03-31T06:04:05;99671.91;;;13.91;62.51
5651;BME280;40241;52.684;9.758;2023-03-31T06:06:30;99681.16;;;13.93;62.56
5651;BME280;40241;52.684;9.758;2023-03-31T06:08:57;99665.47;;;13.96;62.58
5651;BME280;40241;52.684;9.758;2023-03-31T06:11:22;99666.78;;;13.95;62.79
5651;BME280;40241;52.684;9.758;2023-03-31T06:13:48;99657.88;;;13.89;62.74
5651;BME280;40241;52.684;9.758;2023-03-31T06:16:17;99661.16;;;13.87;62.56
5651;BME280;40241;52.684;9.758;2023-03-31T06:18:44;99667.44;;;13.88;62.71
5651;BME280;40241;52.684;9.758;2023-03-31T06:21:12;99654.91;;;13.87;62.74
5651;BME280;40241;52.684;9.758;2023-03-31T06:23:38;99651.59;;;13.88;63.05
5651;BME280;40241;52.684;9.758;2023-03-31T06:26:06;99646.63;;;13.87;62.92
5651;BME280;40241;52.684;9.758;2023-03-31T06:28:35;99645.66;;;13.84;62.94
5651;BME280;40241;52.684;9.758;2023-03-31T06:31:05;99639.38;;;13.84;63.09
5651;BME280;40241;52.684;9.758;2023-03-31T06:33:32;99633.88;;;13.84;63.04
5651;BME280;40241;52.684;9.758;2023-03-31T06:35:58;99634.63;;;13.84;63.04
5651;BME280;40241;52.684;9.758;2023-03-31T06:38:26;99632.78;;;13.87;63.03
5651;BME280;40241;52.684;9.758;2023-03-31T06:40:52;99641.28;;;13.89;63.08
5651;BME280;40241;52.684;9.758;2023-03-31T06:43:18;99638.38;;;13.94;63.05
5651;BME280;40241;52.684;9.758;2023-03-31T06:45:43;99635.81;;;13.96;62.96
5651;BME280;40241;52.684;9.758;2023-03-31T06:48:08;99629.72;;;13.98;63.18
5651;BME280;40241;52.684;9.758;2023-03-31T06:50:36;99630.69;;;14.00;63.26
5651;BME280;40241;52.684;9.758;2023-03-31T06:53:02;99626.44;;;13.99;63.20
5651;BME280;40241;52.684;9.758;2023-03-31T06:55:27;99626.03;;;13.95;63.20
5651;BME280;40241;52.684;9.758;2023-03-31T06:57:53;99614.56;;;13.91;63.48
5651;BME280;40241;52.684;9.758;2023-03-31T07:00:18;99626.16;;;13.90;63.47
5651;BME280;40241;52.684;9.758;2023-03-31T07:02:43;99640.53;;;13.88;63.56
5651;BME280;40241;52.684;9.758;2023-03-31T07:05:09;99623.22;;;13.88;63.55
5651;BME280;40241;52.684;9.758;2023-03-31T07:07:34;99621.75;;;13.87;63.66
5651;BME280;40241;52.684;9.758;2023-03-31T07:10:00;99615.47;;;13.86;63.91
5651;BME280;40241;52.684;9.758;2023-03-31T07:12:25;99623.22;;;13.88;63.65
5651;BME280;40241;52.684;9.758;2023-03-31T07:14:50;99615.66;;;13.88;63.69
5651;BME280;40241;52.684;9.758;2023-03-31T07:17:16;99612.34;;;13.90;63.93
5651;BME280;40241;52.684;9.758;2023-03-31T07:19:41;99604.44;;;13.94;63.98
5651;BME280;40241;52.684;9.758;2023-03-31T07:22:07;99601.88;;;13.96;63.90
5651;BME280;40241;52.684;9.758;2023-03-31T07:24:33;99607.50;;;14.03;63.97
5651;BME280;40241;52.684;9.758;2023-03-31T07:26:58;99605.88;;;14.08;64.05
5651;BME280;40241;52.684;9.758;2023-03-31T07:29:24;99611.78;;;14.12;63.78
5651;BME280;40241;52.684;9.758;2023-03-31T07:31:49;99607.94;;;14.15;63.94
5651;BME280;40241;52.684;9.758;2023-03-31T07:34:14;99597.09;;;14.17;64.05
5651;BME280;40241;52.684;9.758;2023-03-31T07:36:40;99594.16;;;14.22;64.06
5651;BME280;40241;52.684;9.758;2023-03-31T07:39:05;99589.03;;;14.26;64.01
5651;BME280;40241;52.684;9.758;2023-03-31T07:41:31;99592.22;;;14.31;64.18
5651;BME280;40241;52.684;9.758;2023-03-31T07:43:56;99585.59;;;14.34;64.03
5651;BME280;40241;52.684;9.758;2023-03-31T07:46:24;99586.53;;;14.36;64.09
5651;BME280;40241;52.684;9.758;2023-03-31T07:48:50;99582.69;;;14.39;64.08
5651;BME280;40241;52.684;9.758;2023-03-31T07:51:19;99579.19;;;14.39;64.19
5651;BME280;40241;52.684;9.758;2023-03-31T07:53:46;99585.47;;;14.39;64.26
5651;BME280;40241;52.684;9.758;2023-03-31T07:56:13;99575.13;;;14.40;64.41
5651;BME280;40241;52.684;9.758;2023-03-31T07:58:41;99569.56;;;14.40;64.27
5651;BME280;40241;52.684;9.758;2023-03-31T08:01:06;99566.81;;;14.40;64.27
5651;BME280;40241;52.684;9.758;2023-03-31T08:03:32;99558.50;;;14.40;64.36
5651;BME280;40241;52.684;9.758;2023-03-31T08:05:58;99558.00;;;14.41;64.27
5651;BME280;40241;52.684;9.758;2023-03-31T08:08:24;99553.16;;;14.42;64.30
5651;BME280;40241;52.684;9.758;2023-03-31T08:10:51;99545.81;;;14.44;64.44
5651;BME280;40241;52.684;9.758;2023-03-31T08:13:16;99547.84;;;14.44;64.51
5651;BME280;40241;52.684;9.758;2023-03-31T08:15:41;99534.03;;;14.44;64.52
5651;BME280;40241;52.684;9.758;2023-03-31T08:18:07;99530.91;;;14.47;64.56
5651;BME280;40241;52.684;9.758;2023-03-31T08:20:32;99520.75;;;14.50;64.51
5651;BME280;40241;52.684;9.758;2023-03-31T08:22:57;99524.47;;;14.52;64.52
5651;BME280;40241;52.684;9.758;2023-03-31T08:25:23;99523.53;;;14.57;64.52
5651;BME280;40241;52.684;9.758;2023-03-31T08:27:49;99510.09;;;14.61;64.61
5651;BME280;40241;52.684;9.758;2023-03-31T08:30:18;99514.53;;;14.64;64.64
5651;BME280;40241;52.684;9.758;2023-03-31T08:32:44;99509.19;;;14.66;64.64
5651;BME280;40241;52.684;9.758;2023-03-31T08:35:10;99493.91;;;14.73;64.69
5651;BME280;40241;52.684;9.758;2023-03-31T08:37:36;99500.94;;;14.81;64.74
5651;BME280;40241;52.684;9.758;2023-03-31T08:40:06;99498.22;;;14.89;64.78
5651;BME280;40241;52.684;9.758;2023-03-31T08:42:45;99489.72;;;14.94;65.05
5651;BME280;40241;52.684;9.758;2023-03-31T08:45:19;99485.84;;;14.97;64.67
5651;BME280;40241;52.684;9.758;2023-03-31T08:47:47;99484.75;;;15.00;64.48
5651;BME280;40241;52.684;9.758;2023-03-31T08:50:19;99478.81;;;14.96;64.58
5651;BME280;40241;52.684;9.758;2023-03-31T08:53:12;99481.03;;;14.90;65.07
5651;BME280;40241;52.684;9.758;2023-03-31T09:03:37;99462.56;;;14.78;64.82
5651;BME280;40241;52.684;9.758;2023-03-31T09:06:13;99461.63;;;14.75;64.76
5651;BME280;40241;52.684;9.758;2023-03-31T09:08:41;99468.25;;;14.72;64.79
5651;BME280;40241;52.684;9.758;2023-03-31T09:14:07;99448.31;;;14.66;65.13
5651;BME280;40241;52.684;9.758;2023-03-31T09:19:54;99439.44;;;14.68;64.95
5651;BME280;40241;52.684;9.758;2023-03-31T09:22:03;99427.47;;;14.65;64.87
5651;BME280;40241;52.684;9.758;2023-03-31T09:24:32;99441.13;;;14.71;64.99
5651;BME280;40241;52.684;9.758;2023-03-31T09:27:04;99431.16;;;14.75;65.22
5651;BME280;40241;52.684;9.758;2023-03-31T09:32:14;99433.97;;;14.83;65.27
5651;BME280;40241;52.684;9.758;2023-03-31T09:34:40;99420.66;;;14.89;65.07
5651;BME280;40241;52.684;9.758;2023-03-31T09:37:05;99418.28;;;14.93;65.13
5651;BME280;40241;52.684;9.758;2023-03-31T09:39:31;99428.06;;;15.01;65.05
5651;BME280;40241;52.684;9.758;2023-03-31T09:41:56;99405.00;;;15.07;64.90
5651;BME280;40241;52.684;9.758;2023-03-31T09:46:53;99405.34;;;15.18;64.93
5651;BME280;40241;52.684;9.758;2023-03-31T09:49:21;99408.88;;;15.19;64.79
5651;BME280;40241;52.684;9.758;2023-03-31T09:51:57;99403.31;;;15.19;65.04
5651;BME280;40241;52.684;9.758;2023-03-31T09:54:36;99398.91;;;15.23;65.04
5651;BME280;40241;52.684;9.758;2023-03-31T09:57:13;99401.09;;;15.25;65.31
5651;BME280;40241;52.684;9.758;2023-03-31T09:59:38;99392.44;;;15.28;64.93
5651;BME280;40241;52.684;9.758;2023-03-31T10:03:09;99384.88;;;15.29;65.38
5651;BME280;40241;52.684;9.758;2023-03-31T10:05:29;99382.09;;;15.29;65.32
5651;BME280;40241;52.684;9.758;2023-03-31T10:10:54;99374.69;;;15.16;65.04
5651;BME280;40241;52.684;9.758;2023-03-31T10:13:25;99380.22;;;15.16;65.05
5651;BME280;40241;52.684;9.758;2023-03-31T10:15:53;99380.06;;;15.14;65.05
5651;BME280;40241;52.684;9.758;2023-03-31T10:18:19;99387.25;;;15.10;65.09
5651;BME280;40241;52.684;9.758;2023-03-31T10:20:51;99376.56;;;15.06;65.33
5651;BME280;40241;52.684;9.758;2023-03-31T10:23:25;99371.75;;;15.07;65.49
5651;BME280;40241;52.684;9.758;2023-03-31T10:25:51;99375.25;;;15.07;65.43
5651;BME280;40241;52.684;9.758;2023-03-31T10:28:19;99370.63;;;15.10;65.39
5651;BME280;40241;52.684;9.758;2023-03-31T10:30:50;99366.94;;;15.07;65.42
5651;BME280;40241;52.684;9.758;2023-03-31T10:33:21;99363.63;;;15.09;65.51
5651;BME280;40241;52.684;9.758;2023-03-31T10:36:08;99365.09;;;15.10;65.76
5651;BME280;40241;52.684;9.758;2023-03-31T10:38:43;99362.53;;;15.04;65.30
5651;BME280;40241;52.684;9.758;2023-03-31T10:41:09;99361.78;;;15.03;65.56
5651;BME280;40241;52.684;9.758;2023-03-31T10:43:47;99361.41;;;15.07;65.70
5651;BME280;40241;52.684;9.758;2023-03-31T10:46:13;99361.78;;;15.03;65.51
5651;BME280;40241;52.684;9.758;2023-03-31T10:48:40;99355.13;;;15.07;65.52
5651;BME280;40241;52.684;9.758;2023-03-31T10:53:48;99353.28;;;15.09;65.58
5651;BME280;40241;52.684;9.758;2023-03-31T10:56:39;99354.00;;;15.10;65.89
5651;BME280;40241;52.684;9.758;2023-03-31T11:10:23;99343.28;;;15.14;65.56
5651;BME280;40241;52.684;9.758;2023-03-31T11:26:41;99341.09;;;15.05;65.62
5651;BME280;40241;52.684;9.758;2023-03-31T11:34:27;99336.66;;;15.17;65.68
5651;BME280;40241;52.684;9.758;2023-03-31T11:43:01;99329.25;;;15.27;65.85
5651;BME280;40241;52.684;9.758;2023-03-31T11:45:32;99331.63;;;15.38;65.75
5651;BME280;40241;52.684;9.758;2023-03-31T11:48:02;99327.94;;;15.43;65.48
5651;BME280;40241;52.684;9.758;2023-03-31T11:50:34;99321.84;;;15.44;65.36
5651;BME280;40241;52.684;9.758;2023-03-31T11:53:10;99332.19;;;15.51;65.38
5651;BME280;40241;52.684;9.758;2023-03-31T11:55:39;99319.63;;;15.50;65.28
5651;BME280;40241;52.684;9.758;2023-03-31T11:58:11;99321.84;;;15.52;65.30
5651;BME280;40241;52.684;9.758;2023-03-31T12:00:46;99313.88;;;15.56;65.38
5651;BME280;40241;52.684;9.758;2023-03-31T12:03:46;99315.53;;;15.59;65.46
5651;BME280;40241;52.684;9.758;2023-03-31T12:06:19;99322.91;;;15.71;65.42
5651;BME280;40241;52.684;9.758;2023-03-31T12:08:57;99321.75;;;15.82;65.40
5651;BME280;40241;52.684;9.758;2023-03-31T12:11:31;99324.66;;;15.92;65.15
5651;BME280;40241;52.684;9.758;2023-03-31T12:16:41;99317.50;;;15.81;64.62
5651;BME280;40241;52.684;9.758;2023-03-31T12:22:10;99308.09;;;15.69;64.72
5651;BME280;40241;52.684;9.758;2023-03-31T12:24:37;99308.50;;;15.65;64.77
5651;BME280;40241;52.684;9.758;2023-03-31T12:27:12;99303.72;;;15.58;64.64
5651;BME280;40241;52.684;9.758;2023-03-31T12:30:00;99302.63;;;15.54;64.96
5651;BME280;40241;52.684;9.758;2023-03-31T12:32:36;99304.28;;;15.57;64.88
5651;BME280;40241;52.684;9.758;2023-03-31T12:35:20;99295.97;;;15.57;64.86
5651;BME280;40241;52.684;9.758;2023-03-31T12:57:46;99283.31;;;15.79;64.63
5651;BME280;40241;52.684;9.758;2023-03-31T13:00:24;99279.41;;;15.82;64.43
5651;BME280;40241;52.684;9.758;2023-03-31T13:05:54;99269.22;;;15.84;64.34
5651;BME280;40241;52.684;9.758;2023-03-31T13:08:49;99274.00;;;15.91;64.45
5651;BME280;40241;52.684;9.758;2023-03-31T13:11:16;99272.16;;;15.94;64.10
5651;BME280;40241;52.684;9.758;2023-03-31T13:13:57;99263.75;;;16.01;64.02
5651;BME280;40241;52.684;9.758;2023-03-31T13:16:23;99263.41;;;16.05;64.07
5651;BME280;40241;52.684;9.758;2023-03-31T13:18:50;99249.34;;;16.03;63.90
5651;BME280;40241;52.684;9.758;2023-03-31T13:21:16;99255.63;;;16.03;64.04
5651;BME280;40241;52.684;9.758;2023-03-31T13:23:44;99259.72;;;16.02;63.75
5651;BME280;40241;52.684;9.758;2023-03-31T13:34:28;99245.63;;;16.32;63.74
5651;BME280;40241;52.684;9.758;2023-03-31T13:39:47;99243.06;;;16.59;63.74
5651;BME280;40241;52.684;9.758;2023-03-31T13:45:14;99243.09;;;16.76;63.19
5651;BME280;40241;52.684;9.758;2023-03-31T13:53:20;99234.03;;;16.93;63.30
5651;BME280;40241;52.684;9.758;2023-03-31T14:07:34;99223.75;;;16.86;62.26
5651;BME280;40241;52.684;9.758;2023-03-31T14:10:01;99229.53;;;16.80;62.79
5651;BME280;40241;52.684;9.758;2023-03-31T14:12:33;99223.06;;;16.78;62.82
5651;BME280;40241;52.684;9.758;2023-03-31T14:14:59;99225.31;;;16.79;62.98
5651;BME280;40241;52.684;9.758;2023-03-31T14:17:30;99232.16;;;16.78;62.78
5651;BME280;40241;52.684;9.758;2023-03-31T14:31:33;99211.41;;;16.96;62.58
5651;BME280;40241;52.684;9.758;2023-03-31T14:36:57;99223.75;;;17.20;61.65
5651;BME280;40241;52.684;9.758;2023-03-31T14:39:51;99209.06;;;17.27;60.90
5651;BME280;40241;52.684;9.758;2023-03-31T14:42:22;99221.13;;;17.22;61.80
5651;BME280;40241;52.684;9.758;2023-03-31T14:44:54;99218.03;;;17.18;61.81
5651;BME280;40241;52.684;9.758;2023-03-31T14:47:23;99216.72;;;17.19;61.82
5651;BME280;40241;52.684;9.758;2023-03-31T14:50:07;99219.19;;;17.15;61.48
5651;BME280;40241;52.684;9.758;2023-03-31T14:52:36;99211.84;;;17.10;61.86
5651;BME280;40241;52.684;9.758;2023-03-31T14:55:02;99207.41;;;17.07;61.87
5651;BME280;40241;52.684;9.758;2023-03-31T14:57:31;99216.56;;;17.00;61.79
5651;BME280;40241;52.684;9.758;2023-03-31T14:59:59;99217.56;;;16.95;61.78
5651;BME280;40241;52.684;9.758;2023-03-31T15:02:34;99211.31;;;16.87;61.76
5651;BME280;40241;52.684;9.758;2023-03-31T15:05:05;99206.75;;;16.82;61.59
5651;BME280;40241;52.684;9.758;2023-03-31T15:07:32;99214.75;;;16.78;61.89
5651;BME280;40241;52.684;9.758;2023-03-31T15:09:59;99213.44;;;16.79;61.91
5651;BME280;40241;52.684;9.758;2023-03-31T15:12:27;99207.47;;;16.82;61.92
5651;BME280;40241;52.684;9.758;2023-03-31T15:14:56;99201.00;;;16.80;61.88
5651;BME280;40241;52.684;9.758;2023-03-31T15:17:30;99201.53;;;16.86;61.75
5651;BME280;40241;52.684;9.758;2023-03-31T15:20:00;99199.41;;;16.94;61.98
5651;BME280;40241;52.684;9.758;2023-03-31T15:22:29;99200.97;;;17.04;62.11
5651;BME280;40241;52.684;9.758;2023-03-31T15:24:54;99196.22;;;17.14;61.84
5651;BME280;40241;52.684;9.758;2023-03-31T15:27:40;99212.97;;;17.24;61.64
5651;BME280;40241;52.684;9.758;2023-03-31T15:30:18;99193.28;;;17.30;61.22
5651;BME280;40241;52.684;9.758;2023-03-31T15:32:43;99194.34;;;17.34;61.52
5651;BME280;40241;52.684;9.758;2023-03-31T15:37:45;99202.13;;;17.45;61.30
5651;BME280;40241;52.684;9.758;2023-03-31T15:42:44;99203.69;;;17.39;61.35
5651;BME280;40241;52.684;9.758;2023-03-31T15:45:23;99198.41;;;17.33;61.26
5651;BME280;40241;52.684;9.758;2023-03-31T15:48:00;99198.91;;;17.22;61.36
5651;BME280;40241;52.684;9.758;2023-03-31T15:50:27;99194.44;;;17.09;61.65
5651;BME280;40241;52.684;9.758;2023-03-31T15:52:54;99200.06;;;17.02;61.77
5651;BME280;40241;52.684;9.758;2023-03-31T15:57:48;99204.88;;;16.84;61.90
5651;BME280;40241;52.684;9.758;2023-03-31T16:00:43;99204.94;;;16.77;61.96
5651;BME280;40241;52.684;9.758;2023-03-31T16:05:51;99195.06;;;16.66;61.94
5651;BME280;40241;52.684;9.758;2023-03-31T16:08:35;99194.94;;;16.57;62.04
5651;BME280;40241;52.684;9.758;2023-03-31T16:11:26;99220.53;;;16.47;62.37
5651;BME280;40241;52.684;9.758;2023-03-31T16:13:58;99199.47;;;16.44;62.48
5651;BME280;40241;52.684;9.758;2023-03-31T16:16:27;99201.34;;;16.42;62.53
5651;BME280;40241;52.684;9.758;2023-03-31T16:19:04;99200.09;;;16.35;62.70
5651;BME280;40241;52.684;9.758;2023-03-31T16:21:39;99212.00;;;16.28;62.70
5651;BME280;40241;52.684;9.758;2023-03-31T16:24:06;99210.00;;;16.21;62.95
5651;BME280;40241;52.684;9.758;2023-03-31T16:26:32;99211.88;;;16.19;63.13
5651;BME280;40241;52.684;9.758;2023-03-31T16:28:58;99209.09;;;16.19;63.14
5651;BME280;40241;52.684;9.758;2023-03-31T16:31:36;99213.72;;;16.16;63.26
5651;BME280;40241;52.684;9.758;2023-03-31T16:34:06;99212.47;;;16.10;63.20
5651;BME280;40241;52.684;9.758;2023-03-31T16:36:31;99212.47;;;16.10;63.49
5651;BME280;40241;52.684;9.758;2023-03-31T16:38:57;99213.63;;;16.07;63.56